ENGM Airport Information

Runway Information
Runway 01R Length 9678 ft width 148 ft Elevation 670 ft Threshold N/A Heading 16
Runway 19L Length 9678 ft Width 148 ft Elevation 681 ft Threshold N/A Heading 196
Runway 01L Length 11811 ft width 148 ft Elevation 656 ft Threshold N/A Heading 16
Runway 19R Length 11811 ft Width 148 ft Elevation 675 ft Threshold N/A Heading 196
Airport Frequencies
Type APP Name APP Frequency 119.975 MHZ
Type ATIS Name ATIS Frequency 126.125 MHZ
Type CLD Name CLNC DEL Frequency 121.6 MHZ
Type DIR Name DIRECTOR Frequency 131.35 MHZ
Type GND Name GND Frequency 121.925 MHZ
Type MISC Name DE ICING Frequency 131.975 MHZ
Type OPS Name WINGOPS Frequency 29.38 MHZ
Type PMSV Name PMSV METRO Frequency 134.175 MHZ
Type TWR Name TWR Frequency 118.3 MHZ
Airport Navaids
Type NDB Name Bergerud Frequency 316 KHZ
Type VOR-DME Name Gardermoen Frequency 115950 KHZ
Type NDB Name Oppaker Frequency 334 KHZ
Type NDB Name Solberg Frequency 414 KHZ
Type NDB Name Soknen Frequency 387 KHZ
Airport Weather Information & NOTAM
ADDS - METARS form results

(1544 UTC 01 December 2022)
Data provider http://aviationweather.gov/metar/data/
 
METAR text: ENGM 011520Z 36006KT 9999 BKN024 M01/M03 Q1035 NOSIG
Conditions at: ENGM (OSLO/GARDERMOEN , NO) observed 1520 UTC 01 December 2022
Temperature: -1.0°C (30°F)
Dewpoint: -3.0°C (27°F) [RH = 86%]
Pressure (altimeter): 30.56 inches Hg (1035.0 mb)
Winds: from the N (360 degrees) at 7 MPH (6 knots; 3.1 m/s)
Visibility: 6 or more miles (10+ km)
Ceiling: 2400 feet AGL
Clouds: broken clouds at 2400 feet AGL
Weather: no significant weather observed at this time

METAR text: ENGM 011450Z 36006KT 9999 -SN FEW008 BKN024 M01/M03 Q1035 NOSIG
Conditions at: ENGM (OSLO/GARDERMOEN , NO) observed 1450 UTC 01 December 2022
Temperature: -1.0°C (30°F)
Dewpoint: -3.0°C (27°F) [RH = 86%]
Pressure (altimeter): 30.56 inches Hg (1035.0 mb)
Winds: from the N (360 degrees) at 7 MPH (6 knots; 3.1 m/s)
Visibility: 6 or more miles (10+ km)
Ceiling: 2400 feet AGL
Clouds: few clouds at 800 feet AGL
broken clouds at 2400 feet AGL
Weather: -SN  (light snow)

Forecast for: AMD
Text: TAF AMD ENGM 0113/0212 01005KT 9999 BKN020
Forecast period: 1300 UTC 01 December 2022 to 1200 UTC 02 December 2022
Forecast type: FROM: standard forecast or significant change
Winds: from the N (10 degrees) at 6 MPH (5 knots; 2.6 m/s)
Visibility: 6 or more miles (10+ km)
Ceiling: 2000 feet AGL
Clouds: broken clouds at 2000 feet AGL
Weather: no significant weather forecast for this period
Text: TEMPO 0113/0212 4000 -SN BKN008
Forecast period: 1300 UTC 01 December 2022 to 1200 UTC 02 December 2022
Forecast type: TEMPORARY: The following changes expected for less than half the time period
Visibility: 2.49 miles (4.01 km)
Ceiling: 800 feet AGL
Clouds: broken clouds at 800 feet AGL
Weather: -SN  (light snow)